New Iberia, Louisiana
Current Conditions -  °F | °C
As of 3:53 AM on Thursday 18 Dec 2014 (Local Time) from KARA Reporting Station
Few Clouds Few Clouds  
Wind Chill: 51°   Ceiling: Unl
Heat Index: 51°   Visibility: 10mi
Dew Point: 45°   Wind: 7mph
Humidity: 80%   Direction: 90°E
Pressure: 30.14"   Gusts: NA
Location:  30.01°N, 91.82°W
Report Text: KARA 180953Z AUTO 09006KT 10SM FEW038 11/07 A3014 RMK AO2 SLP205 T01060072
Loading
Personal Weather Stations






























Interactive Weather Map New forecast layout! Learn more

10-Day Weather Forecast

Advertisements
Track Severe Weather on mobile